Disclaimer

Please do not use the information listed here in-flight or in-navigation, as they are not provided to us by the airports but are provided by volunteers, so they might be outdated.

Search


Regions


Airport information page

No radio frequency information is available.

Airport informations:
Latitude: 20° 38' 28.66" N
Longitude: 088° 26' 46.39" W
Elevation: 102 feet - 31 meters
Operating hours: N/A
Operating agency: Civil government, landing fees and diplomatic clearance may be required
Timezone: UTC-6(-5DT) - First Sunday in April to the last Saturday in October
Fuel: N/A

Runway information:
10/28 - 9186 x 148 feet< - >2800 x 45 meters

Recent METARs:
MMCT 162042Z 09010KT 8SM BKN030 27/18 A3002 RMK 8/400
MMCT 162042Z 09010KT 8SM BKN030 27/18 A3002 RMK 8/400
MMCT 162042Z 09010KT 8SM BKN030 27/18 A3002 RMK 8/400

Airport on the map: